createdAt,value
2018-02-27T00:01:49.691Z,99474.57
2018-02-27T00:04:17.305Z,99477.47
2018-02-27T00:06:44.865Z,99471.86
2018-02-27T00:09:12.482Z,99469.06
2018-02-27T00:11:42.456Z,99478.89
2018-02-27T00:14:10.099Z,99471.41
2018-02-27T00:16:37.713Z,99462.84
2018-02-27T00:19:05.327Z,99452.23
2018-02-27T00:21:32.931Z,99454.67
2018-02-27T00:24:00.501Z,99443.96
2018-02-27T00:26:28.095Z,99444.79
2018-02-27T00:28:55.837Z,99446.68
2018-02-27T00:31:23.434Z,99447.89
2018-02-27T00:33:51.038Z,99449.57
2018-02-27T00:36:18.608Z,99443.99
2018-02-27T00:38:46.354Z,99442.00
2018-02-27T00:41:13.982Z,99439.42
2018-02-27T00:43:41.557Z,99436.13
2018-02-27T00:46:09.125Z,99439.61
2018-02-27T00:48:36.815Z,99436.44
2018-02-27T00:51:04.388Z,99431.69
2018-02-27T00:53:32.130Z,99434.10
2018-02-27T00:55:59.736Z,99436.11
2018-02-27T00:58:27.310Z,99429.08
2018-02-27T01:00:54.925Z,99424.76
2018-02-27T01:03:22.544Z,99422.51
2018-02-27T01:05:50.235Z,99420.76
2018-02-27T01:08:17.800Z,99412.89
2018-02-27T01:10:45.573Z,99408.66
2018-02-27T01:13:13.321Z,99401.81
2018-02-27T01:15:41.108Z,99392.42
2018-02-27T01:18:08.751Z,99396.47
2018-02-27T01:20:36.327Z,99402.42
2018-02-27T01:23:03.909Z,99406.84
2018-02-27T01:25:31.511Z,99403.23
2018-02-27T01:27:59.083Z,99403.16
2018-02-27T01:30:26.862Z,99395.32
2018-02-27T01:32:54.486Z,99389.49
2018-02-27T01:35:22.050Z,99396.83
2018-02-27T01:37:49.618Z,99396.38
2018-02-27T01:40:17.240Z,99386.75
2018-02-27T01:42:44.823Z,99380.45
2018-02-27T01:45:12.630Z,99383.20
2018-02-27T01:47:40.244Z,99386.90
2018-02-27T01:50:07.955Z,99375.55
2018-02-27T01:52:35.611Z,99381.00
2018-02-27T01:55:03.238Z,99374.63
2018-02-27T01:57:30.827Z,99366.17
2018-02-27T01:59:58.598Z,99369.89
2018-02-27T02:02:26.200Z,99367.10
2018-02-27T02:04:53.776Z,99369.13
2018-02-27T02:07:21.384Z,99376.72
2018-02-27T02:09:49.080Z,99380.16
2018-02-27T02:12:16.660Z,99383.16
2018-02-27T02:14:44.237Z,99381.59
2018-02-27T02:17:11.856Z,99380.02
2018-02-27T02:19:39.430Z,99379.70
2018-02-27T02:22:07.150Z,99377.64
2018-02-27T02:24:34.751Z,99377.23
2018-02-27T02:27:02.316Z,99373.55
2018-02-27T02:29:29.889Z,99361.67
2018-02-27T02:31:57.515Z,99361.89
2018-02-27T02:34:25.266Z,99359.11
2018-02-27T02:36:52.853Z,99344.48
2018-02-27T02:39:20.443Z,99354.84
2018-02-27T02:41:59.826Z,99353.19
2018-02-27T02:44:27.436Z,99341.41
2018-02-27T02:46:55.006Z,99344.45
2018-02-27T02:49:22.593Z,99351.41
2018-02-27T02:51:50.208Z,99344.76
2018-02-27T02:54:17.789Z,99338.81
2018-02-27T02:56:45.366Z,99339.83
2018-02-27T02:59:12.971Z,99335.39
2018-02-27T03:01:40.538Z,99346.03
2018-02-27T03:04:08.121Z,99349.11
2018-02-27T03:06:35.932Z,99348.27
2018-02-27T03:09:03.607Z,99356.13
2018-02-27T03:11:31.258Z,99352.25
2018-02-27T03:13:58.881Z,99356.52
2018-02-27T03:16:26.461Z,99356.34
2018-02-27T03:18:54.242Z,99360.33
2018-02-27T03:21:21.842Z,99362.13
2018-02-27T03:23:49.426Z,99360.10
2018-02-27T03:26:16.993Z,99361.78
2018-02-27T03:28:44.604Z,99363.66
2018-02-27T03:31:12.210Z,99371.88
2018-02-27T03:33:39.783Z,99374.23
2018-02-27T03:36:07.396Z,99371.00
2018-02-27T03:38:34.964Z,99368.34
2018-02-27T03:41:02.553Z,99370.99
2018-02-27T03:43:30.163Z,99363.96
2018-02-27T03:45:57.728Z,99370.20
2018-02-27T03:48:25.327Z,99371.23
2018-02-27T03:50:53.028Z,99372.63
2018-02-27T03:53:20.600Z,99361.34
2018-02-27T03:55:48.173Z,99363.98
2018-02-27T03:58:15.792Z,99363.70
2018-02-27T04:00:43.468Z,99359.74
2018-02-27T04:03:11.037Z,99356.89
2018-02-27T04:05:38.648Z,99352.70
2018-02-27T04:08:06.236Z,99346.77
2018-02-27T04:10:33.821Z,99350.75
2018-02-27T04:13:01.428Z,99352.34
2018-02-27T04:15:29.000Z,99346.98
2018-02-27T04:17:56.582Z,99332.13
2018-02-27T04:20:24.196Z,99320.41
2018-02-27T04:22:51.774Z,99318.35
2018-02-27T04:25:19.378Z,99315.39
2018-02-27T04:27:47.146Z,99320.66
2018-02-27T04:30:14.812Z,99316.97
2018-02-27T04:32:42.384Z,99312.89
2018-02-27T04:35:10.139Z,99322.91
2018-02-27T04:37:37.733Z,99315.13
2018-02-27T04:40:05.295Z,99317.27
2018-02-27T04:42:32.911Z,99323.55
2018-02-27T04:45:00.597Z,99299.16
2018-02-27T04:47:28.179Z,99328.02
2018-02-27T04:49:55.806Z,99337.06
2018-02-27T04:52:23.394Z,99340.63
2018-02-27T04:54:50.998Z,99333.03
2018-02-27T04:57:18.614Z,99321.44
2018-02-27T04:59:46.191Z,99306.22
2018-02-27T05:02:13.811Z,99298.70
2018-02-27T05:04:41.413Z,99277.37
2018-02-27T05:07:09.138Z,99270.88
2018-02-27T05:09:36.797Z,99262.73
2018-02-27T05:12:04.399Z,99273.80
2018-02-27T05:14:31.992Z,99300.66
2018-02-27T05:16:59.554Z,99313.55
2018-02-27T05:19:27.163Z,99318.59
2018-02-27T05:21:54.810Z,99326.36
2018-02-27T05:24:22.752Z,99329.61
2018-02-27T05:26:50.363Z,99332.77
2018-02-27T05:29:17.950Z,99324.48
2018-02-27T05:31:45.545Z,99319.77
2018-02-27T05:34:13.164Z,99319.91
2018-02-27T05:36:40.756Z,99317.25
2018-02-27T05:39:08.331Z,99313.97
2018-02-27T05:41:35.940Z,99324.73
2018-02-27T05:44:03.513Z,99325.30
2018-02-27T05:46:31.102Z,99332.41
2018-02-27T05:48:58.840Z,99332.76
2018-02-27T05:51:26.432Z,99331.37
2018-02-27T05:53:54.015Z,99332.50
2018-02-27T05:56:21.623Z,99327.75
2018-02-27T05:58:49.425Z,99330.09
2018-02-27T06:01:16.996Z,99330.66
2018-02-27T06:03:44.651Z,99337.00
2018-02-27T06:06:12.245Z,99339.89
2018-02-27T06:08:39.815Z,99331.14
2018-02-27T06:11:07.466Z,99323.80
2018-02-27T06:13:35.072Z,99319.48
2018-02-27T06:16:02.856Z,99323.33
2018-02-27T06:18:30.477Z,99320.67
2018-02-27T06:20:58.048Z,99323.44
2018-02-27T06:23:25.624Z,99318.77
2018-02-27T06:25:53.244Z,99313.63
2018-02-27T06:28:20.808Z,99310.17
2018-02-27T06:30:48.391Z,99294.40
2018-02-27T06:33:16.007Z,99300.03
2018-02-27T06:35:43.579Z,99301.84
2018-02-27T06:38:11.161Z,99291.84
2018-02-27T06:40:39.061Z,99297.25
2018-02-27T06:43:06.740Z,99302.45
2018-02-27T06:45:34.325Z,99299.09
2018-02-27T06:48:02.047Z,99300.23
2018-02-27T06:50:29.732Z,99288.08
2018-02-27T06:52:57.318Z,99305.75
2018-02-27T06:55:24.955Z,99293.27
2018-02-27T06:57:52.539Z,99302.63
2018-02-27T07:00:20.165Z,99307.80
2018-02-27T07:02:47.793Z,99304.45
2018-02-27T07:05:15.339Z,99297.50
2018-02-27T07:07:42.920Z,99284.79
2018-02-27T07:10:10.788Z,99294.22
2018-02-27T07:12:38.367Z,99297.20
2018-02-27T07:15:05.947Z,99294.63
2018-02-27T07:17:33.564Z,99296.42
2018-02-27T07:20:01.143Z,99302.08
2018-02-27T07:22:28.727Z,99304.69
2018-02-27T07:24:56.339Z,99308.95
2018-02-27T07:27:23.917Z,99301.23
2018-02-27T07:29:51.491Z,99311.83
2018-02-27T07:32:19.128Z,99318.61
2018-02-27T07:34:46.693Z,99316.91
2018-02-27T07:37:14.297Z,99308.97
2018-02-27T07:39:41.897Z,99311.69
2018-02-27T07:42:09.495Z,99313.61
2018-02-27T07:44:37.043Z,99320.28
2018-02-27T07:47:04.655Z,99323.86
2018-02-27T07:49:32.275Z,99334.18
2018-02-27T07:51:59.832Z,99334.25
2018-02-27T07:54:27.434Z,99336.16
2018-02-27T07:56:55.028Z,99328.08
2018-02-27T07:59:22.648Z,99318.06
2018-02-27T08:01:50.488Z,99310.76
2018-02-27T08:04:18.521Z,99299.26
2018-02-27T08:06:46.070Z,99317.60
2018-02-27T08:09:13.686Z,99328.09
2018-02-27T08:11:41.242Z,99325.53
2018-02-27T08:14:08.837Z,99332.10
2018-02-27T08:16:36.412Z,99320.90
2018-02-27T08:19:04.029Z,99326.59
2018-02-27T08:21:31.601Z,99326.64
2018-02-27T08:23:59.210Z,99330.30
2018-02-27T08:26:26.765Z,99334.61
2018-02-27T08:28:54.327Z,99343.75
2018-02-27T08:31:21.939Z,99343.72
2018-02-27T08:33:49.533Z,99339.77
2018-02-27T08:36:17.097Z,99357.83
2018-02-27T08:38:44.727Z,99366.94
2018-02-27T08:41:12.498Z,99358.05
2018-02-27T08:43:40.124Z,99363.92
2018-02-27T08:46:07.749Z,99369.66
2018-02-27T08:48:35.318Z,99369.75
2018-02-27T08:51:03.024Z,99363.73
2018-02-27T08:53:30.636Z,99369.78
2018-02-27T08:55:58.250Z,99370.94
2018-02-27T08:58:28.216Z,99360.75
2018-02-27T09:00:55.937Z,99365.41
2018-02-27T09:03:23.507Z,99365.46
2018-02-27T09:05:51.069Z,99362.98
2018-02-27T09:08:18.672Z,99361.53
2018-02-27T09:10:46.258Z,99362.44
2018-02-27T09:13:13.833Z,99357.69
2018-02-27T09:15:41.442Z,99366.88
2018-02-27T09:18:09.065Z,99357.34
2018-02-27T09:20:36.682Z,99370.66
2018-02-27T09:23:04.293Z,99385.70
2018-02-27T09:25:31.898Z,99383.69
2018-02-27T09:27:59.481Z,99376.56
2018-02-27T09:30:27.095Z,99374.88
2018-02-27T09:32:54.705Z,99378.02
2018-02-27T09:35:22.284Z,99389.17
2018-02-27T09:37:49.917Z,99379.45
2018-02-27T09:40:17.491Z,99378.98
2018-02-27T09:42:45.998Z,99390.47
2018-02-27T09:45:13.622Z,99385.34
2018-02-27T09:47:41.187Z,99383.84
2018-02-27T09:50:08.749Z,99379.39
2018-02-27T09:52:36.336Z,99371.95
2018-02-27T09:55:03.903Z,99366.80
2018-02-27T09:57:31.473Z,99363.31
2018-02-27T09:59:59.070Z,99369.55
2018-02-27T10:02:26.660Z,99355.36
2018-02-27T10:04:54.255Z,99364.50
2018-02-27T10:07:21.898Z,99359.56
2018-02-27T10:09:49.482Z,99361.19
2018-02-27T10:12:17.027Z,99372.69
2018-02-27T10:14:44.607Z,99381.89
2018-02-27T10:17:12.212Z,99376.09
2018-02-27T10:19:39.795Z,99387.94
2018-02-27T10:22:07.449Z,99391.30
2018-02-27T10:24:35.037Z,99385.38
2018-02-27T10:27:02.604Z,99385.59
2018-02-27T10:29:30.201Z,99383.45
2018-02-27T10:31:57.809Z,99383.78
2018-02-27T10:34:25.377Z,99382.80
2018-02-27T10:36:52.997Z,99389.16
2018-02-27T10:39:20.592Z,99392.17
2018-02-27T10:41:48.159Z,99383.47
2018-02-27T10:44:15.756Z,99400.27
2018-02-27T10:46:43.328Z,99403.16
2018-02-27T10:49:10.925Z,99398.33
2018-02-27T10:51:38.524Z,99393.26
2018-02-27T10:54:06.094Z,99382.70
2018-02-27T10:56:33.676Z,99396.38
2018-02-27T10:59:01.342Z,99409.95
2018-02-27T11:01:28.952Z,99415.23
2018-02-27T11:03:56.501Z,99415.86
2018-02-27T11:06:24.120Z,99399.69
2018-02-27T11:08:51.700Z,99407.70
2018-02-27T11:11:19.329Z,99405.44
2018-02-27T11:13:46.956Z,99409.02
2018-02-27T11:16:14.540Z,99416.38
2018-02-27T11:18:42.240Z,99418.42
2018-02-27T11:21:09.909Z,99411.70
2018-02-27T11:23:37.478Z,99412.88
2018-02-27T11:26:05.052Z,99413.94
2018-02-27T11:28:32.903Z,99421.02
2018-02-27T11:31:00.564Z,99433.22
2018-02-27T11:33:28.139Z,99429.23
2018-02-27T11:35:55.768Z,99431.63
2018-02-27T11:38:23.558Z,99429.67
2018-02-27T11:40:51.110Z,99435.06
2018-02-27T11:43:18.738Z,99439.77
2018-02-27T11:45:46.305Z,99445.23
2018-02-27T11:48:13.889Z,99453.20
2018-02-27T11:50:41.486Z,99444.34
2018-02-27T11:53:09.044Z,99442.81
2018-02-27T11:55:36.618Z,99441.41
2018-02-27T11:58:04.424Z,99447.50
2018-02-27T12:00:32.018Z,99446.50
2018-02-27T12:02:59.575Z,99448.85
2018-02-27T12:05:27.229Z,99445.33
2018-02-27T12:07:54.800Z,99451.93
2018-02-27T12:10:22.351Z,99468.25
2018-02-27T12:12:50.009Z,99465.05
2018-02-27T12:15:17.580Z,99455.16
2018-02-27T12:17:45.140Z,99451.02
2018-02-27T12:20:12.734Z,99445.20
2018-02-27T12:22:40.304Z,99438.42
2018-02-27T12:25:07.876Z,99430.17
2018-02-27T12:27:35.480Z,99422.91
2018-02-27T12:30:03.051Z,99416.39
2018-02-27T12:32:30.604Z,99413.53
2018-02-27T12:34:58.180Z,99407.35
2018-02-27T12:37:25.747Z,99416.83
2018-02-27T12:39:53.309Z,99415.50
2018-02-27T12:42:20.946Z,99422.38
2018-02-27T12:44:48.514Z,99440.58
2018-02-27T12:47:16.104Z,99448.06
2018-02-27T12:49:43.727Z,99467.52
2018-02-27T12:52:11.303Z,99478.44
2018-02-27T12:54:38.915Z,99486.52
2018-02-27T12:57:06.520Z,99489.83
2018-02-27T12:59:34.102Z,99501.83
2018-02-27T13:02:01.689Z,99503.39
2018-02-27T13:04:29.280Z,99507.70
2018-02-27T13:06:56.831Z,99501.41
2018-02-27T13:09:24.389Z,99474.97
2018-02-27T13:11:51.988Z,99504.75
2018-02-27T13:14:19.550Z,99506.65
2018-02-27T13:16:47.140Z,99522.48
2018-02-27T13:19:14.748Z,99521.19
2018-02-27T13:21:42.306Z,99521.31
2018-02-27T13:24:09.879Z,99516.03
2018-02-27T13:26:37.500Z,99513.05
2018-02-27T13:29:05.065Z,99520.26
2018-02-27T13:31:32.639Z,99524.27
2018-02-27T13:34:00.257Z,99516.66
2018-02-27T13:36:27.841Z,99531.52
2018-02-27T13:38:55.423Z,99533.84
2018-02-27T13:41:23.060Z,99534.47
2018-02-27T13:43:50.639Z,99529.91
2018-02-27T13:46:18.204Z,99532.26
2018-02-27T13:48:46.021Z,99523.70
2018-02-27T13:51:13.443Z,99523.40
2018-02-27T13:53:41.180Z,99528.06
2018-02-27T13:56:08.858Z,99523.42
2018-02-27T13:58:36.432Z,99530.88
2018-02-27T14:01:03.993Z,99525.27
2018-02-27T14:03:31.857Z,99533.14
2018-02-27T14:05:59.426Z,99524.58
2018-02-27T14:08:27.340Z,99522.11
2018-02-27T14:10:55.211Z,99512.86
2018-02-27T14:13:22.788Z,99507.06
2018-02-27T14:15:50.362Z,99515.46
2018-02-27T14:18:17.978Z,99512.92
2018-02-27T14:20:45.558Z,99520.05
2018-02-27T14:23:13.128Z,99526.17
2018-02-27T14:25:40.715Z,99518.91
2018-02-27T14:28:08.298Z,99515.98
2018-02-27T14:30:35.949Z,99520.94
2018-02-27T14:33:03.577Z,99520.83
2018-02-27T14:35:32.026Z,99520.34
2018-02-27T14:37:59.600Z,99528.73
2018-02-27T14:40:27.202Z,99529.52
2018-02-27T14:42:54.775Z,99527.23
2018-02-27T14:45:22.330Z,99523.16
2018-02-27T14:47:49.925Z,99526.37
2018-02-27T14:50:17.638Z,99533.30
2018-02-27T14:52:45.215Z,99533.14
2018-02-27T14:55:12.861Z,99535.70
2018-02-27T14:57:40.599Z,99542.28
2018-02-27T15:00:08.273Z,99546.06
2018-02-27T15:02:35.880Z,99548.97
2018-02-27T15:05:03.502Z,99549.45
2018-02-27T15:07:31.061Z,99554.28
2018-02-27T15:09:58.676Z,99554.80
2018-02-27T15:12:26.305Z,99557.75
2018-02-27T15:14:53.939Z,99557.55
2018-02-27T15:17:21.606Z,99542.41
2018-02-27T15:19:49.377Z,99539.90
2018-02-27T15:22:16.976Z,99540.83
2018-02-27T15:24:44.595Z,99539.62
2018-02-27T15:27:12.561Z,99532.46
2018-02-27T15:29:40.128Z,99533.21
2018-02-27T15:32:07.733Z,99535.94
2018-02-27T15:34:35.295Z,99534.25
2018-02-27T15:37:02.872Z,99548.39
2018-02-27T15:39:30.464Z,99550.58
2018-02-27T15:41:58.019Z,99551.48
2018-02-27T15:44:25.797Z,99559.18
2018-02-27T15:46:53.392Z,99556.78
2018-02-27T15:49:20.996Z,99552.97
2018-02-27T15:51:48.566Z,99562.56
2018-02-27T15:54:16.234Z,99577.16
2018-02-27T15:56:43.890Z,99588.50
2018-02-27T15:59:11.462Z,99588.03
2018-02-27T16:01:39.088Z,99593.20
2018-02-27T16:04:06.944Z,99603.19
2018-02-27T16:06:34.530Z,99617.63
2018-02-27T16:09:02.208Z,99627.16
2018-02-27T16:11:29.791Z,99613.23
2018-02-27T16:13:57.363Z,99611.96
2018-02-27T16:16:25.026Z,99613.70
2018-02-27T16:18:52.750Z,99615.89
2018-02-27T16:21:20.464Z,99597.55
2018-02-27T16:23:48.102Z,99581.53
2018-02-27T16:26:15.687Z,99562.28
2018-02-27T16:28:43.256Z,99554.35
2018-02-27T16:31:10.858Z,99551.39
2018-02-27T16:33:38.522Z,99550.85
2018-02-27T16:36:06.121Z,99540.98
2018-02-27T16:38:33.815Z,99529.94
2018-02-27T16:41:01.400Z,99518.80
2018-02-27T16:43:29.009Z,99508.03
2018-02-27T16:45:56.599Z,99496.13
2018-02-27T16:48:24.189Z,99507.59
2018-02-27T16:50:51.789Z,99507.46
2018-02-27T16:53:19.795Z,99528.97
2018-02-27T16:55:47.372Z,99547.31
2018-02-27T16:58:15.030Z,99570.45
2018-02-27T17:00:42.994Z,99575.84
2018-02-27T17:03:10.668Z,99582.17
2018-02-27T17:05:38.335Z,99581.77
2018-02-27T17:08:05.999Z,99575.66
2018-02-27T17:10:33.579Z,99557.92
2018-02-27T17:13:01.495Z,99547.09
2018-02-27T17:15:29.065Z,99542.73
2018-02-27T17:17:56.855Z,99537.45
2018-02-27T17:20:24.457Z,99532.23
2018-02-27T17:22:52.054Z,99525.92
2018-02-27T17:25:20.076Z,99520.75
2018-02-27T17:27:47.970Z,99509.48
2018-02-27T17:30:15.551Z,99508.53
2018-02-27T17:32:43.248Z,99508.45
2018-02-27T17:35:11.015Z,99492.59
2018-02-27T17:37:38.603Z,99485.25
2018-02-27T17:40:06.189Z,99471.62
2018-02-27T17:42:33.812Z,99459.89
2018-02-27T17:45:01.748Z,99452.59
2018-02-27T17:47:29.614Z,99458.77
2018-02-27T17:49:57.339Z,99468.70
2018-02-27T17:52:25.357Z,99463.67
2018-02-27T17:54:53.015Z,99466.59
2018-02-27T17:57:20.621Z,99458.23
2018-02-27T17:59:48.186Z,99463.99
2018-02-27T18:02:15.758Z,99487.48
2018-02-27T18:04:43.427Z,99498.14
2018-02-27T18:07:10.996Z,99498.80
2018-02-27T18:09:38.936Z,99498.55
2018-02-27T18:12:06.533Z,99494.22
2018-02-27T18:14:34.100Z,99485.09
2018-02-27T18:17:01.981Z,99489.73
2018-02-27T18:19:29.590Z,99493.59
2018-02-27T18:21:57.164Z,99483.31
2018-02-27T18:24:24.741Z,99478.16
2018-02-27T18:26:52.353Z,99484.04
2018-02-27T18:29:19.945Z,99493.11
2018-02-27T18:31:47.721Z,99474.08
2018-02-27T18:34:15.303Z,99465.65
2018-02-27T18:36:42.872Z,99464.89
2018-02-27T18:39:10.510Z,99446.34
2018-02-27T18:41:38.873Z,99431.38
2018-02-27T18:44:06.615Z,99450.59
2018-02-27T18:46:34.180Z,99474.08
2018-02-27T18:49:01.800Z,99483.91
2018-02-27T18:51:29.372Z,99491.64
2018-02-27T18:53:56.979Z,99495.83
2018-02-27T18:56:24.590Z,99490.45
2018-02-27T18:58:52.171Z,99480.25
2018-02-27T19:01:19.745Z,99456.51
2018-02-27T19:03:47.327Z,99445.66
2018-02-27T19:06:14.896Z,99447.31
2018-02-27T19:08:42.442Z,99446.90
2018-02-27T19:11:10.058Z,99442.70
2018-02-27T19:13:37.660Z,99443.94
2018-02-27T19:16:05.216Z,99461.25
2018-02-27T19:18:35.567Z,99450.81
2018-02-27T19:21:03.172Z,99455.27
2018-02-27T19:23:30.761Z,99454.13
2018-02-27T19:25:58.345Z,99463.38
2018-02-27T19:28:25.945Z,99460.61
2018-02-27T19:30:56.130Z,99475.11
2018-02-27T19:33:24.235Z,99482.44
2018-02-27T19:35:52.189Z,99488.28
2018-02-27T19:38:19.884Z,99495.28
2018-02-27T19:40:47.504Z,99499.53
2018-02-27T19:43:15.093Z,99495.29
2018-02-27T19:45:42.656Z,99493.78
2018-02-27T19:48:10.270Z,99496.22
2018-02-27T19:50:37.985Z,99494.61
2018-02-27T19:53:05.617Z,99503.25
2018-02-27T19:55:33.263Z,99505.15
2018-02-27T19:58:00.833Z,99516.17
2018-02-27T20:00:28.406Z,99528.09
2018-02-27T20:02:56.033Z,99503.11
2018-02-27T20:05:23.738Z,99509.23
2018-02-27T20:07:51.303Z,99516.32
2018-02-27T20:10:19.047Z,99533.02
2018-02-27T20:12:46.604Z,99519.44
2018-02-27T20:15:14.223Z,99511.47
2018-02-27T20:17:47.561Z,99511.41
2018-02-27T20:20:15.118Z,99497.23
2018-02-27T20:22:48.295Z,99492.02
2018-02-27T20:25:15.859Z,99480.63
2018-02-27T20:27:43.424Z,99490.15
2018-02-27T20:30:11.199Z,99473.86
2018-02-27T20:32:38.818Z,99461.78
2018-02-27T20:35:06.363Z,99468.20
2018-02-27T20:37:33.976Z,99465.58
2018-02-27T20:40:01.549Z,99470.72
2018-02-27T20:42:29.716Z,99468.89
2018-02-27T20:44:57.324Z,99471.97
2018-02-27T20:47:24.895Z,99477.08
2018-02-27T20:49:52.501Z,99475.01
2018-02-27T20:52:20.097Z,99462.19
2018-02-27T20:54:47.710Z,99456.91
2018-02-27T20:57:15.819Z,99455.42
2018-02-27T20:59:43.470Z,99442.13
2018-02-27T21:02:11.094Z,99431.84
2018-02-27T21:04:38.652Z,99427.72
2018-02-27T21:07:06.333Z,99425.88
2018-02-27T21:09:33.900Z,99428.30
2018-02-27T21:12:01.656Z,99416.91
2018-02-27T21:14:29.268Z,99417.30
2018-02-27T21:16:56.848Z,99416.53
2018-02-27T21:19:24.400Z,99408.10
2018-02-27T21:21:52.106Z,99398.50
2018-02-27T21:24:19.768Z,99386.34
2018-02-27T21:26:47.339Z,99376.31
2018-02-27T21:29:14.924Z,99380.86
2018-02-27T21:31:42.503Z,99380.17
2018-02-27T21:34:10.058Z,99372.63
2018-02-27T21:36:37.655Z,99363.76
2018-02-27T21:39:05.311Z,99358.48
2018-02-27T21:41:33.176Z,99368.27
2018-02-27T21:51:05.576Z,99383.88
2018-02-27T21:58:00.311Z,99385.86
2018-02-27T22:00:27.898Z,99394.52
2018-02-27T22:02:56.408Z,99402.82
2018-02-27T22:05:24.149Z,99393.81
2018-02-27T22:07:51.810Z,99393.48
2018-02-27T22:10:19.996Z,99387.24
2018-02-27T22:12:47.956Z,99397.96
2018-02-27T22:15:15.528Z,99405.57
2018-02-27T22:17:43.144Z,99407.22
2018-02-27T22:20:10.933Z,99399.66
2018-02-27T22:22:38.519Z,99406.11
2018-02-27T22:25:06.268Z,99406.94
2018-02-27T22:27:33.863Z,99394.77
2018-02-27T22:30:01.598Z,99384.06
2018-02-27T22:32:29.200Z,99343.83
2018-02-27T22:34:56.919Z,99363.13
2018-02-27T22:37:24.496Z,99351.91
2018-02-27T22:39:52.244Z,99343.90
2018-02-27T22:42:19.967Z,99333.59
2018-02-27T22:44:47.782Z,99336.81
2018-02-27T22:47:15.414Z,99345.39
2018-02-27T22:49:42.974Z,99349.64
2018-02-27T22:52:10.755Z,99350.25
2018-02-27T22:54:38.420Z,99352.37
2018-02-27T22:57:06.152Z,99360.82
2018-02-27T22:59:34.007Z,99389.52
2018-02-27T23:02:01.804Z,99393.61
2018-02-27T23:04:29.687Z,99403.39
2018-02-27T23:06:57.345Z,99400.14
2018-02-27T23:09:25.332Z,99394.83
2018-02-27T23:11:53.080Z,99380.95
2018-02-27T23:14:20.856Z,99362.41
2018-02-27T23:16:48.608Z,99362.45
2018-02-27T23:19:16.270Z,99383.81
2018-02-27T23:21:44.009Z,99400.12
2018-02-27T23:24:45.969Z,99386.41
2018-02-27T23:27:15.086Z,99347.50
2018-02-27T23:29:44.204Z,99360.66
2018-02-27T23:32:13.308Z,99360.45
2018-02-27T23:34:46.024Z,99361.98
2018-02-27T23:37:13.729Z,99347.61
2018-02-27T23:39:41.719Z,99354.36
2018-02-27T23:42:09.659Z,99366.77
2018-02-27T23:44:37.540Z,99364.48
2018-02-27T23:47:05.202Z,99352.34
2018-02-27T23:49:32.781Z,99388.67
2018-02-27T23:52:00.413Z,99401.38
2018-02-27T23:54:28.186Z,99392.92
2018-02-27T23:56:55.902Z,99385.72
2018-02-27T23:59:23.541Z,99387.75
